Quick Links (Output Below):   Max & Min Temps   /   Climate Reports   /   Zone Forecasts
River Forecasts   /   Forestry Forecasts   /   Aviation Forecasts   /   Radars   /   Features

Terminal Aerodrome Forecast (Texarkana)

Pick a Site:
Arkadelphia | El Dorado | Fayetteville | Fort Smith | Harrison | Highfill | Hot Springs | Jonesboro
Little Rock | Monticello | Mountain Home | Pine Bluff | Texarkana
 Forecast 

KTXK 251730Z 2518/2618 18005KT P6SM SCT035 SCT250
     FM260300 19004KT P6SM SKC
     FM260600 20004KT 4SM BR SKC
     FM261500 22008KT P6SM SKC=


 Latest METARs (Observations) 
How to Decode METARs
18Z KTXK 251753Z VRB06KT 8SM SCT029 BKN038 29/23 A3003 RMK AO2 SLP162
         T02940228 10300 20222 58013
         
17Z KTXK 251653Z 18004KT 9SM SCT020 BKN029 BKN038 29/23 A3004 RMK AO2
         SLP169 T02890233
         
16Z KTXK 251553Z VRB03KT 9SM BKN019 BKN028 OVC035 27/23 A3007 RMK AO2
         SLP178 T02720228
         
15Z KTXK 251453Z 15005KT 10SM FEW019 SCT033 27/23 A3007 RMK AO2 SLP176
         T02670228 51010
         
14Z KTXK 251353Z 15005KT 9SM BKN021 25/22 A3006 RMK AO2 SLP173
         T02500222
         
13Z KTXK 251253Z 00000KT 2 1/2SM BR BKN021 BKN027 22/22 A3005 RMK AO2
         SLP170 T02220217
         
12Z KTXK 251153Z 00000KT 1 3/4SM BR CLR 21/21 A3004 RMK AO2 SLP166
         60001 70001 T02060206 10222 20206 51003
         
11Z KTXK 251053Z 00000KT 5SM BR SCT033 21/21 A3003 RMK AO2 SLP165
         P0001 T02110211
         
10Z KTXK 250953Z AUTO 00000KT 4SM BR CLR 22/21 A3003 RMK AO2 SLP163
         T02170211
         
09Z KTXK 250853Z AUTO 00000KT 4SM BR FEW027 BKN036 22/22 A3004 RMK AO2
         SLP166 T02220217 51001
         
***** Today's Observations (Above) *****


Back to Main Page
http://www.srh.noaa.gov/lzk/qfcst.php

USA.gov is the U.S. government's official web portal to all federal, state and local government web resources and services.